sensor_id;sensor_type;location;lat;lon;timestamp;P1;durP1;ratioP1;P2;durP2;ratioP2
42616;SDS011;28250;52.320;0.360;2023-05-17T00:00:08;12.43;;;4.95;;
42616;SDS011;28250;52.320;0.360;2023-05-17T00:02:35;12.38;;;4.65;;
42616;SDS011;28250;52.320;0.360;2023-05-17T00:05:02;10.13;;;4.55;;
42616;SDS011;28250;52.320;0.360;2023-05-17T00:07:29;8.15;;;4.28;;
42616;SDS011;28250;52.320;0.360;2023-05-17T00:09:55;9.27;;;4.57;;
42616;SDS011;28250;52.320;0.360;2023-05-17T00:12:22;9.90;;;5.10;;
42616;SDS011;28250;52.320;0.360;2023-05-17T00:14:48;11.05;;;5.25;;
42616;SDS011;28250;52.320;0.360;2023-05-17T00:17:14;8.40;;;4.45;;
42616;SDS011;28250;52.320;0.360;2023-05-17T00:19:41;14.23;;;5.53;;
42616;SDS011;28250;52.320;0.360;2023-05-17T00:22:07;10.98;;;4.75;;
42616;SDS011;28250;52.320;0.360;2023-05-17T00:24:33;16.85;;;4.90;;
42616;SDS011;28250;52.320;0.360;2023-05-17T00:26:59;15.20;;;5.95;;
42616;SDS011;28250;52.320;0.360;2023-05-17T00:29:25;9.43;;;4.25;;
42616;SDS011;28250;52.320;0.360;2023-05-17T00:31:51;9.40;;;4.43;;
42616;SDS011;28250;52.320;0.360;2023-05-17T00:34:17;11.15;;;4.60;;
42616;SDS011;28250;52.320;0.360;2023-05-17T00:36:44;10.50;;;4.05;;
42616;SDS011;28250;52.320;0.360;2023-05-17T00:39:10;10.63;;;4.57;;
42616;SDS011;28250;52.320;0.360;2023-05-17T00:41:37;8.30;;;4.72;;
42616;SDS011;28250;52.320;0.360;2023-05-17T00:44:03;12.27;;;5.28;;
42616;SDS011;28250;52.320;0.360;2023-05-17T00:46:30;15.02;;;5.00;;
42616;SDS011;28250;52.320;0.360;2023-05-17T00:48:57;9.52;;;4.60;;
42616;SDS011;28250;52.320;0.360;2023-05-17T00:51:24;9.10;;;4.55;;
42616;SDS011;28250;52.320;0.360;2023-05-17T00:53:50;11.10;;;4.70;;
42616;SDS011;28250;52.320;0.360;2023-05-17T00:56:17;9.98;;;4.30;;
42616;SDS011;28250;52.320;0.360;2023-05-17T00:58:43;8.77;;;4.32;;
42616;SDS011;28250;52.320;0.360;2023-05-17T01:01:10;8.10;;;4.10;;
42616;SDS011;28250;52.320;0.360;2023-05-17T01:03:36;7.60;;;4.15;;
42616;SDS011;28250;52.320;0.360;2023-05-17T01:06:03;11.70;;;4.13;;
42616;SDS011;28250;52.320;0.360;2023-05-17T01:08:30;6.90;;;3.70;;
42616;SDS011;28250;52.320;0.360;2023-05-17T01:17:11;6.05;;;3.33;;
42616;SDS011;28250;52.320;0.360;2023-05-17T01:19:52;9.57;;;4.40;;
42616;SDS011;28250;52.320;0.360;2023-05-17T01:22:40;5.23;;;3.23;;
42616;SDS011;28250;52.320;0.360;2023-05-17T01:25:17;8.95;;;4.18;;
42616;SDS011;28250;52.320;0.360;2023-05-17T01:30:36;7.68;;;3.42;;
42616;SDS011;28250;52.320;0.360;2023-05-17T01:35:30;6.00;;;3.78;;
42616;SDS011;28250;52.320;0.360;2023-05-17T01:37:56;7.63;;;3.50;;
42616;SDS011;28250;52.320;0.360;2023-05-17T01:40:23;9.20;;;3.53;;
42616;SDS011;28250;52.320;0.360;2023-05-17T01:42:52;6.83;;;3.23;;
42616;SDS011;28250;52.320;0.360;2023-05-17T01:45:37;8.02;;;3.40;;
42616;SDS011;28250;52.320;0.360;2023-05-17T01:48:19;10.07;;;4.05;;
42616;SDS011;28250;52.320;0.360;2023-05-17T01:50:53;5.93;;;3.90;;
42616;SDS011;28250;52.320;0.360;2023-05-17T01:53:24;6.68;;;3.35;;
42616;SDS011;28250;52.320;0.360;2023-05-17T01:56:18;7.63;;;3.60;;
42616;SDS011;28250;52.320;0.360;2023-05-17T01:58:50;9.50;;;3.58;;
42616;SDS011;28250;52.320;0.360;2023-05-17T02:01:18;7.90;;;3.97;;
42616;SDS011;28250;52.320;0.360;2023-05-17T02:03:49;6.75;;;3.75;;
42616;SDS011;28250;52.320;0.360;2023-05-17T02:06:15;8.57;;;4.13;;
42616;SDS011;28250;52.320;0.360;2023-05-17T02:08:42;12.27;;;4.20;;
42616;SDS011;28250;52.320;0.360;2023-05-17T02:11:08;8.85;;;4.32;;
42616;SDS011;28250;52.320;0.360;2023-05-17T02:13:34;8.90;;;3.63;;
42616;SDS011;28250;52.320;0.360;2023-05-17T02:16:00;6.13;;;3.78;;
42616;SDS011;28250;52.320;0.360;2023-05-17T02:18:29;9.70;;;3.97;;
42616;SDS011;28250;52.320;0.360;2023-05-17T02:21:02;8.85;;;4.30;;
42616;SDS011;28250;52.320;0.360;2023-05-17T02:23:28;10.68;;;4.10;;
42616;SDS011;28250;52.320;0.360;2023-05-17T02:25:55;13.20;;;4.57;;
42616;SDS011;28250;52.320;0.360;2023-05-17T02:28:21;8.63;;;3.85;;
42616;SDS011;28250;52.320;0.360;2023-05-17T02:30:47;11.48;;;4.30;;
42616;SDS011;28250;52.320;0.360;2023-05-17T02:33:13;7.45;;;3.90;;
42616;SDS011;28250;52.320;0.360;2023-05-17T02:35:39;7.88;;;3.85;;
42616;SDS011;28250;52.320;0.360;2023-05-17T02:38:05;9.45;;;4.13;;
42616;SDS011;28250;52.320;0.360;2023-05-17T02:40:32;7.88;;;3.53;;
42616;SDS011;28250;52.320;0.360;2023-05-17T02:43:00;8.43;;;3.38;;
42616;SDS011;28250;52.320;0.360;2023-05-17T02:45:26;8.57;;;3.55;;
42616;SDS011;28250;52.320;0.360;2023-05-17T02:47:52;5.32;;;3.33;;
42616;SDS011;28250;52.320;0.360;2023-05-17T02:50:18;5.60;;;3.22;;
42616;SDS011;28250;52.320;0.360;2023-05-17T02:52:44;6.03;;;3.90;;
42616;SDS011;28250;52.320;0.360;2023-05-17T02:55:11;7.93;;;3.55;;
42616;SDS011;28250;52.320;0.360;2023-05-17T02:57:36;6.35;;;3.80;;
42616;SDS011;28250;52.320;0.360;2023-05-17T03:00:03;7.60;;;3.53;;
42616;SDS011;28250;52.320;0.360;2023-05-17T03:02:31;7.35;;;3.80;;
42616;SDS011;28250;52.320;0.360;2023-05-17T03:04:58;8.45;;;3.75;;
42616;SDS011;28250;52.320;0.360;2023-05-17T03:07:24;11.77;;;3.80;;
42616;SDS011;28250;52.320;0.360;2023-05-17T03:09:50;5.63;;;3.45;;
42616;SDS011;28250;52.320;0.360;2023-05-17T03:12:16;8.48;;;3.78;;
42616;SDS011;28250;52.320;0.360;2023-05-17T03:14:43;7.35;;;2.97;;
42616;SDS011;28250;52.320;0.360;2023-05-17T03:17:10;6.22;;;3.28;;
42616;SDS011;28250;52.320;0.360;2023-05-17T03:19:37;6.90;;;3.00;;
42616;SDS011;28250;52.320;0.360;2023-05-17T03:22:03;7.30;;;3.55;;
42616;SDS011;28250;52.320;0.360;2023-05-17T03:24:31;7.53;;;4.38;;
42616;SDS011;28250;52.320;0.360;2023-05-17T03:26:58;7.35;;;3.47;;
42616;SDS011;28250;52.320;0.360;2023-05-17T03:29:25;8.87;;;3.53;;
42616;SDS011;28250;52.320;0.360;2023-05-17T03:31:51;9.75;;;3.70;;
42616;SDS011;28250;52.320;0.360;2023-05-17T03:34:18;9.02;;;2.83;;
42616;SDS011;28250;52.320;0.360;2023-05-17T03:36:44;6.40;;;3.22;;
42616;SDS011;28250;52.320;0.360;2023-05-17T03:39:10;8.05;;;3.05;;
42616;SDS011;28250;52.320;0.360;2023-05-17T03:41:40;5.95;;;3.30;;
42616;SDS011;28250;52.320;0.360;2023-05-17T03:44:06;11.00;;;3.40;;
42616;SDS011;28250;52.320;0.360;2023-05-17T03:46:33;7.10;;;3.40;;
42616;SDS011;28250;52.320;0.360;2023-05-17T03:48:59;8.77;;;3.17;;
42616;SDS011;28250;52.320;0.360;2023-05-17T03:51:25;7.28;;;3.45;;
42616;SDS011;28250;52.320;0.360;2023-05-17T03:53:56;6.80;;;3.03;;
42616;SDS011;28250;52.320;0.360;2023-05-17T03:56:24;5.63;;;2.72;;
42616;SDS011;28250;52.320;0.360;2023-05-17T03:58:51;10.73;;;3.88;;
42616;SDS011;28250;52.320;0.360;2023-05-17T04:01:17;7.30;;;3.33;;
42616;SDS011;28250;52.320;0.360;2023-05-17T04:03:45;5.85;;;3.00;;
42616;SDS011;28250;52.320;0.360;2023-05-17T04:06:12;9.82;;;3.78;;
42616;SDS011;28250;52.320;0.360;2023-05-17T04:08:42;12.10;;;3.70;;
42616;SDS011;28250;52.320;0.360;2023-05-17T04:11:08;9.23;;;4.90;;
42616;SDS011;28250;52.320;0.360;2023-05-17T04:13:36;6.88;;;3.45;;
42616;SDS011;28250;52.320;0.360;2023-05-17T04:16:03;8.70;;;3.92;;
42616;SDS011;28250;52.320;0.360;2023-05-17T04:18:33;7.45;;;3.90;;
42616;SDS011;28250;52.320;0.360;2023-05-17T04:21:03;8.38;;;3.50;;
42616;SDS011;28250;52.320;0.360;2023-05-17T04:23:32;6.70;;;3.15;;
42616;SDS011;28250;52.320;0.360;2023-05-17T04:25:59;5.65;;;3.58;;
42616;SDS011;28250;52.320;0.360;2023-05-17T04:28:29;7.78;;;3.45;;
42616;SDS011;28250;52.320;0.360;2023-05-17T04:30:55;7.00;;;3.47;;
42616;SDS011;28250;52.320;0.360;2023-05-17T04:33:22;5.90;;;2.90;;
42616;SDS011;28250;52.320;0.360;2023-05-17T04:35:49;8.63;;;3.45;;
42616;SDS011;28250;52.320;0.360;2023-05-17T04:38:19;5.88;;;3.53;;
42616;SDS011;28250;52.320;0.360;2023-05-17T04:40:46;10.10;;;3.58;;
42616;SDS011;28250;52.320;0.360;2023-05-17T04:43:12;8.68;;;3.58;;
42616;SDS011;28250;52.320;0.360;2023-05-17T04:45:39;10.38;;;4.22;;
42616;SDS011;28250;52.320;0.360;2023-05-17T04:48:06;6.15;;;3.28;;
42616;SDS011;28250;52.320;0.360;2023-05-17T04:50:32;8.50;;;3.95;;
42616;SDS011;28250;52.320;0.360;2023-05-17T04:52:58;9.80;;;3.70;;
42616;SDS011;28250;52.320;0.360;2023-05-17T04:57:52;7.72;;;3.40;;
42616;SDS011;28250;52.320;0.360;2023-05-17T05:00:19;8.82;;;3.13;;
42616;SDS011;28250;52.320;0.360;2023-05-17T05:02:56;7.07;;;3.30;;
42616;SDS011;28250;52.320;0.360;2023-05-17T05:05:23;7.78;;;3.50;;
42616;SDS011;28250;52.320;0.360;2023-05-17T05:07:50;6.50;;;3.40;;
42616;SDS011;28250;52.320;0.360;2023-05-17T05:10:16;6.43;;;3.30;;
42616;SDS011;28250;52.320;0.360;2023-05-17T05:12:42;10.63;;;4.85;;
42616;SDS011;28250;52.320;0.360;2023-05-17T05:15:09;8.43;;;3.40;;
42616;SDS011;28250;52.320;0.360;2023-05-17T05:17:41;8.07;;;3.10;;
42616;SDS011;28250;52.320;0.360;2023-05-17T05:20:07;5.72;;;3.08;;
42616;SDS011;28250;52.320;0.360;2023-05-17T05:22:34;7.57;;;3.08;;
42616;SDS011;28250;52.320;0.360;2023-05-17T05:25:01;8.07;;;3.15;;
42616;SDS011;28250;52.320;0.360;2023-05-17T05:27:27;9.15;;;3.72;;
42616;SDS011;28250;52.320;0.360;2023-05-17T05:29:54;7.50;;;3.85;;
42616;SDS011;28250;52.320;0.360;2023-05-17T05:32:22;9.57;;;3.97;;
42616;SDS011;28250;52.320;0.360;2023-05-17T05:34:48;11.00;;;4.13;;
42616;SDS011;28250;52.320;0.360;2023-05-17T05:37:14;9.60;;;4.20;;
42616;SDS011;28250;52.320;0.360;2023-05-17T05:39:41;8.38;;;4.70;;
42616;SDS011;28250;52.320;0.360;2023-05-17T05:42:07;7.97;;;3.83;;
42616;SDS011;28250;52.320;0.360;2023-05-17T05:44:34;8.60;;;4.20;;
42616;SDS011;28250;52.320;0.360;2023-05-17T05:47:00;6.60;;;3.67;;
42616;SDS011;28250;52.320;0.360;2023-05-17T05:49:26;11.52;;;4.55;;
42616;SDS011;28250;52.320;0.360;2023-05-17T05:51:53;8.13;;;4.28;;
42616;SDS011;28250;52.320;0.360;2023-05-17T05:54:20;8.85;;;4.15;;
42616;SDS011;28250;52.320;0.360;2023-05-17T05:56:46;8.43;;;4.13;;
42616;SDS011;28250;52.320;0.360;2023-05-17T05:59:16;11.02;;;3.95;;
42616;SDS011;28250;52.320;0.360;2023-05-17T06:01:43;10.95;;;4.18;;
42616;SDS011;28250;52.320;0.360;2023-05-17T06:04:10;9.40;;;3.85;;
42616;SDS011;28250;52.320;0.360;2023-05-17T06:06:36;10.32;;;4.60;;
42616;SDS011;28250;52.320;0.360;2023-05-17T06:09:02;12.52;;;5.03;;
42616;SDS011;28250;52.320;0.360;2023-05-17T06:11:31;8.13;;;4.15;;
42616;SDS011;28250;52.320;0.360;2023-05-17T06:13:57;18.15;;;5.32;;
42616;SDS011;28250;52.320;0.360;2023-05-17T06:16:23;9.68;;;4.18;;
42616;SDS011;28250;52.320;0.360;2023-05-17T06:18:49;8.15;;;4.43;;
42616;SDS011;28250;52.320;0.360;2023-05-17T06:21:15;9.50;;;4.53;;
42616;SDS011;28250;52.320;0.360;2023-05-17T06:23:42;10.30;;;4.40;;
42616;SDS011;28250;52.320;0.360;2023-05-17T06:26:08;11.20;;;5.25;;
42616;SDS011;28250;52.320;0.360;2023-05-17T06:28:36;10.30;;;4.90;;
42616;SDS011;28250;52.320;0.360;2023-05-17T06:31:02;11.52;;;4.60;;
42616;SDS011;28250;52.320;0.360;2023-05-17T06:33:28;10.57;;;4.47;;
42616;SDS011;28250;52.320;0.360;2023-05-17T06:35:54;8.05;;;4.35;;
42616;SDS011;28250;52.320;0.360;2023-05-17T06:38:21;15.18;;;5.22;;
42616;SDS011;28250;52.320;0.360;2023-05-17T06:40:51;14.35;;;4.57;;
42616;SDS011;28250;52.320;0.360;2023-05-17T06:43:19;11.40;;;4.75;;
42616;SDS011;28250;52.320;0.360;2023-05-17T06:48:12;10.48;;;4.43;;
42616;SDS011;28250;52.320;0.360;2023-05-17T06:50:39;11.63;;;5.00;;
42616;SDS011;28250;52.320;0.360;2023-05-17T06:53:05;14.27;;;4.90;;
42616;SDS011;28250;52.320;0.360;2023-05-17T06:55:31;13.27;;;5.15;;
42616;SDS011;28250;52.320;0.360;2023-05-17T06:57:57;14.18;;;5.45;;
42616;SDS011;28250;52.320;0.360;2023-05-17T07:00:24;14.47;;;5.37;;
42616;SDS011;28250;52.320;0.360;2023-05-17T07:02:50;13.85;;;6.45;;
42616;SDS011;28250;52.320;0.360;2023-05-17T07:05:16;11.00;;;5.05;;
42616;SDS011;28250;52.320;0.360;2023-05-17T07:07:43;11.55;;;5.45;;
42616;SDS011;28250;52.320;0.360;2023-05-17T07:10:09;11.13;;;5.60;;
42616;SDS011;28250;52.320;0.360;2023-05-17T07:12:36;13.10;;;5.80;;
42616;SDS011;28250;52.320;0.360;2023-05-17T07:15:03;15.55;;;5.55;;
42616;SDS011;28250;52.320;0.360;2023-05-17T07:17:30;17.27;;;6.38;;
42616;SDS011;28250;52.320;0.360;2023-05-17T07:19:56;13.48;;;5.07;;
42616;SDS011;28250;52.320;0.360;2023-05-17T07:22:22;11.43;;;5.10;;
42616;SDS011;28250;52.320;0.360;2023-05-17T07:24:48;11.85;;;5.53;;
42616;SDS011;28250;52.320;0.360;2023-05-17T07:27:16;11.68;;;5.97;;
42616;SDS011;28250;52.320;0.360;2023-05-17T07:29:42;9.80;;;5.50;;
42616;SDS011;28250;52.320;0.360;2023-05-17T07:32:08;13.93;;;6.30;;
42616;SDS011;28250;52.320;0.360;2023-05-17T07:34:34;11.80;;;5.88;;
42616;SDS011;28250;52.320;0.360;2023-05-17T07:37:01;12.93;;;6.87;;
42616;SDS011;28250;52.320;0.360;2023-05-17T07:39:27;13.75;;;6.53;;
42616;SDS011;28250;52.320;0.360;2023-05-17T07:41:53;13.10;;;6.03;;
42616;SDS011;28250;52.320;0.360;2023-05-17T07:44:19;9.27;;;5.45;;
42616;SDS011;28250;52.320;0.360;2023-05-17T07:46:46;10.60;;;5.57;;
42616;SDS011;28250;52.320;0.360;2023-05-17T07:49:13;12.35;;;6.38;;
42616;SDS011;28250;52.320;0.360;2023-05-17T07:51:39;11.20;;;6.10;;
42616;SDS011;28250;52.320;0.360;2023-05-17T07:54:05;13.32;;;5.95;;
42616;SDS011;28250;52.320;0.360;2023-05-17T07:56:32;12.07;;;5.85;;
42616;SDS011;28250;52.320;0.360;2023-05-17T07:58:58;13.93;;;6.32;;
42616;SDS011;28250;52.320;0.360;2023-05-17T08:01:25;11.32;;;6.00;;
42616;SDS011;28250;52.320;0.360;2023-05-17T08:03:51;13.57;;;6.95;;
42616;SDS011;28250;52.320;0.360;2023-05-17T08:06:18;11.83;;;6.60;;
42616;SDS011;28250;52.320;0.360;2023-05-17T08:08:44;16.83;;;7.93;;
42616;SDS011;28250;52.320;0.360;2023-05-17T08:11:11;17.73;;;9.00;;
42616;SDS011;28250;52.320;0.360;2023-05-17T08:13:38;12.45;;;7.63;;
42616;SDS011;28250;52.320;0.360;2023-05-17T08:16:04;11.27;;;6.93;;
42616;SDS011;28250;52.320;0.360;2023-05-17T08:18:32;13.57;;;7.10;;
42616;SDS011;28250;52.320;0.360;2023-05-17T08:20:59;11.32;;;6.88;;
42616;SDS011;28250;52.320;0.360;2023-05-17T08:23:25;13.45;;;6.70;;
42616;SDS011;28250;52.320;0.360;2023-05-17T08:25:51;14.80;;;7.72;;
42616;SDS011;28250;52.320;0.360;2023-05-17T08:28:17;13.00;;;6.90;;
42616;SDS011;28250;52.320;0.360;2023-05-17T08:30:43;12.52;;;7.53;;
42616;SDS011;28250;52.320;0.360;2023-05-17T08:33:09;13.32;;;7.55;;
42616;SDS011;28250;52.320;0.360;2023-05-17T08:35:35;14.30;;;7.43;;
42616;SDS011;28250;52.320;0.360;2023-05-17T08:38:02;13.80;;;7.13;;
42616;SDS011;28250;52.320;0.360;2023-05-17T08:40:28;13.75;;;7.75;;
42616;SDS011;28250;52.320;0.360;2023-05-17T08:42:55;11.70;;;7.53;;
42616;SDS011;28250;52.320;0.360;2023-05-17T08:47:51;14.15;;;7.57;;
42616;SDS011;28250;52.320;0.360;2023-05-17T08:52:44;13.63;;;7.57;;
42616;SDS011;28250;52.320;0.360;2023-05-17T08:55:11;15.20;;;7.93;;
42616;SDS011;28250;52.320;0.360;2023-05-17T08:57:40;15.20;;;8.15;;
42616;SDS011;28250;52.320;0.360;2023-05-17T09:00:08;10.50;;;7.25;;
42616;SDS011;28250;52.320;0.360;2023-05-17T09:02:42;13.48;;;8.20;;
42616;SDS011;28250;52.320;0.360;2023-05-17T09:05:08;14.00;;;7.63;;
42616;SDS011;28250;52.320;0.360;2023-05-17T09:07:35;17.50;;;8.07;;
42616;SDS011;28250;52.320;0.360;2023-05-17T09:10:03;12.52;;;7.25;;
42616;SDS011;28250;52.320;0.360;2023-05-17T09:12:32;15.95;;;8.18;;
42616;SDS011;28250;52.320;0.360;2023-05-17T09:17:54;12.30;;;7.35;;
42616;SDS011;28250;52.320;0.360;2023-05-17T09:20:22;12.75;;;8.13;;
42616;SDS011;28250;52.320;0.360;2023-05-17T09:23:00;13.93;;;7.75;;
42616;SDS011;28250;52.320;0.360;2023-05-17T09:25:27;14.43;;;8.07;;
42616;SDS011;28250;52.320;0.360;2023-05-17T09:27:54;15.68;;;9.07;;
42616;SDS011;28250;52.320;0.360;2023-05-17T09:30:26;15.50;;;8.45;;
42616;SDS011;28250;52.320;0.360;2023-05-17T09:32:56;13.25;;;8.52;;
42616;SDS011;28250;52.320;0.360;2023-05-17T09:35:28;16.55;;;8.50;;
42616;SDS011;28250;52.320;0.360;2023-05-17T09:38:08;19.30;;;9.48;;
42616;SDS011;28250;52.320;0.360;2023-05-17T09:40:43;16.60;;;9.07;;
42616;SDS011;28250;52.320;0.360;2023-05-17T09:43:11;15.75;;;8.63;;
42616;SDS011;28250;52.320;0.360;2023-05-17T09:45:38;11.77;;;7.93;;
42616;SDS011;28250;52.320;0.360;2023-05-17T09:50:48;13.13;;;7.80;;
42616;SDS011;28250;52.320;0.360;2023-05-17T09:53:36;13.85;;;8.38;;
42616;SDS011;28250;52.320;0.360;2023-05-17T09:56:04;16.08;;;9.45;;
42616;SDS011;28250;52.320;0.360;2023-05-17T09:58:32;12.40;;;7.80;;
42616;SDS011;28250;52.320;0.360;2023-05-17T10:01:01;15.27;;;8.30;;
42616;SDS011;28250;52.320;0.360;2023-05-17T10:03:34;14.48;;;8.05;;
42616;SDS011;28250;52.320;0.360;2023-05-17T10:06:04;14.07;;;7.38;;
42616;SDS011;28250;52.320;0.360;2023-05-17T10:08:32;12.85;;;6.82;;
42616;SDS011;28250;52.320;0.360;2023-05-17T10:11:04;14.25;;;7.50;;
42616;SDS011;28250;52.320;0.360;2023-05-17T10:13:43;14.85;;;7.75;;
42616;SDS011;28250;52.320;0.360;2023-05-17T10:16:16;16.48;;;7.47;;
42616;SDS011;28250;52.320;0.360;2023-05-17T10:18:46;12.98;;;7.10;;
42616;SDS011;28250;52.320;0.360;2023-05-17T10:21:13;11.73;;;7.47;;
42616;SDS011;28250;52.320;0.360;2023-05-17T10:23:42;15.25;;;7.20;;
42616;SDS011;28250;52.320;0.360;2023-05-17T10:26:08;12.85;;;8.07;;
42616;SDS011;28250;52.320;0.360;2023-05-17T10:28:35;12.57;;;7.40;;
42616;SDS011;28250;52.320;0.360;2023-05-17T10:31:02;15.53;;;7.00;;
42616;SDS011;28250;52.320;0.360;2023-05-17T10:33:32;13.48;;;7.47;;
42616;SDS011;28250;52.320;0.360;2023-05-17T10:35:58;10.70;;;6.00;;
42616;SDS011;28250;52.320;0.360;2023-05-17T10:38:27;10.75;;;6.25;;
42616;SDS011;28250;52.320;0.360;2023-05-17T10:40:53;11.43;;;6.78;;
42616;SDS011;28250;52.320;0.360;2023-05-17T10:43:21;10.70;;;5.90;;
42616;SDS011;28250;52.320;0.360;2023-05-17T10:45:49;8.57;;;5.55;;
42616;SDS011;28250;52.320;0.360;2023-05-17T10:50:44;10.73;;;6.63;;
42616;SDS011;28250;52.320;0.360;2023-05-17T10:53:11;10.23;;;6.75;;
42616;SDS011;28250;52.320;0.360;2023-05-17T10:55:41;11.15;;;7.18;;
42616;SDS011;28250;52.320;0.360;2023-05-17T11:00:38;12.82;;;6.88;;
42616;SDS011;28250;52.320;0.360;2023-05-17T11:05:44;12.48;;;5.50;;
42616;SDS011;28250;52.320;0.360;2023-05-17T11:08:36;10.25;;;5.55;;
42616;SDS011;28250;52.320;0.360;2023-05-17T11:11:11;9.15;;;5.90;;
42616;SDS011;28250;52.320;0.360;2023-05-17T11:16:17;9.48;;;5.78;;
42616;SDS011;28250;52.320;0.360;2023-05-17T11:18:48;7.95;;;5.70;;
42616;SDS011;28250;52.320;0.360;2023-05-17T11:21:17;12.60;;;5.88;;
42616;SDS011;28250;52.320;0.360;2023-05-17T11:23:45;7.53;;;4.97;;
42616;SDS011;28250;52.320;0.360;2023-05-17T11:26:22;7.43;;;4.53;;
42616;SDS011;28250;52.320;0.360;2023-05-17T11:28:59;6.78;;;4.50;;
42616;SDS011;28250;52.320;0.360;2023-05-17T11:31:36;8.55;;;4.30;;
42616;SDS011;28250;52.320;0.360;2023-05-17T11:34:09;7.30;;;4.57;;
42616;SDS011;28250;52.320;0.360;2023-05-17T11:36:52;7.78;;;4.60;;
42616;SDS011;28250;52.320;0.360;2023-05-17T11:39:20;8.73;;;4.43;;
42616;SDS011;28250;52.320;0.360;2023-05-17T11:41:48;8.18;;;4.45;;
42616;SDS011;28250;52.320;0.360;2023-05-17T11:44:23;7.57;;;3.90;;
42616;SDS011;28250;52.320;0.360;2023-05-17T11:49:32;8.20;;;4.78;;
42616;SDS011;28250;52.320;0.360;2023-05-17T11:52:06;6.53;;;3.88;;
42616;SDS011;28250;52.320;0.360;2023-05-17T11:54:33;12.13;;;4.70;;
42616;SDS011;28250;52.320;0.360;2023-05-17T11:56:59;11.30;;;3.65;;
42616;SDS011;28250;52.320;0.360;2023-05-17T11:59:35;6.63;;;3.63;;
42616;SDS011;28250;52.320;0.360;2023-05-17T12:02:04;7.63;;;3.92;;
42616;SDS011;28250;52.320;0.360;2023-05-17T12:04:33;7.72;;;3.58;;
42616;SDS011;28250;52.320;0.360;2023-05-17T12:07:03;8.15;;;3.63;;
42616;SDS011;28250;52.320;0.360;2023-05-17T12:09:33;6.93;;;3.90;;
42616;SDS011;28250;52.320;0.360;2023-05-17T12:12:01;9.57;;;4.25;;
42616;SDS011;28250;52.320;0.360;2023-05-17T12:14:28;6.40;;;3.72;;
42616;SDS011;28250;52.320;0.360;2023-05-17T12:16:55;9.75;;;4.28;;
42616;SDS011;28250;52.320;0.360;2023-05-17T12:19:25;5.43;;;3.15;;
42616;SDS011;28250;52.320;0.360;2023-05-17T12:22:03;5.15;;;2.90;;
42616;SDS011;28250;52.320;0.360;2023-05-17T12:24:37;6.18;;;3.28;;
42616;SDS011;28250;52.320;0.360;2023-05-17T12:27:04;5.95;;;3.40;;
42616;SDS011;28250;52.320;0.360;2023-05-17T12:29:31;6.13;;;3.63;;
42616;SDS011;28250;52.320;0.360;2023-05-17T12:31:57;6.18;;;3.55;;
42616;SDS011;28250;52.320;0.360;2023-05-17T12:34:26;4.82;;;3.42;;
42616;SDS011;28250;52.320;0.360;2023-05-17T12:36:53;6.32;;;3.22;;
42616;SDS011;28250;52.320;0.360;2023-05-17T12:39:20;6.75;;;3.22;;
42616;SDS011;28250;52.320;0.360;2023-05-17T12:41:49;4.80;;;3.08;;
42616;SDS011;28250;52.320;0.360;2023-05-17T12:44:17;6.78;;;3.17;;
42616;SDS011;28250;52.320;0.360;2023-05-17T12:46:45;6.05;;;3.97;;
42616;SDS011;28250;52.320;0.360;2023-05-17T12:49:23;7.50;;;3.72;;
42616;SDS011;28250;52.320;0.360;2023-05-17T12:51:49;6.70;;;3.85;;
42616;SDS011;28250;52.320;0.360;2023-05-17T12:56:48;5.53;;;3.88;;
42616;SDS011;28250;52.320;0.360;2023-05-17T12:59:17;6.28;;;3.55;;
42616;SDS011;28250;52.320;0.360;2023-05-17T13:01:50;6.15;;;3.47;;
42616;SDS011;28250;52.320;0.360;2023-05-17T13:04:27;8.55;;;3.90;;
42616;SDS011;28250;52.320;0.360;2023-05-17T13:06:57;7.05;;;4.20;;
42616;SDS011;28250;52.320;0.360;2023-05-17T13:09:27;7.07;;;3.80;;
42616;SDS011;28250;52.320;0.360;2023-05-17T13:12:01;5.82;;;3.30;;
42616;SDS011;28250;52.320;0.360;2023-05-17T13:14:32;8.40;;;3.60;;
42616;SDS011;28250;52.320;0.360;2023-05-17T13:17:23;7.15;;;4.10;;
42616;SDS011;28250;52.320;0.360;2023-05-17T13:20:00;6.55;;;3.90;;
42616;SDS011;28250;52.320;0.360;2023-05-17T13:22:26;5.25;;;3.47;;
42616;SDS011;28250;52.320;0.360;2023-05-17T13:24:52;9.27;;;4.10;;
42616;SDS011;28250;52.320;0.360;2023-05-17T13:27:19;7.03;;;3.70;;
42616;SDS011;28250;52.320;0.360;2023-05-17T13:29:45;5.17;;;3.10;;
42616;SDS011;28250;52.320;0.360;2023-05-17T13:32:11;5.03;;;3.15;;
42616;SDS011;28250;52.320;0.360;2023-05-17T13:34:38;5.70;;;3.37;;
42616;SDS011;28250;52.320;0.360;2023-05-17T13:37:05;9.05;;;4.32;;
42616;SDS011;28250;52.320;0.360;2023-05-17T13:39:32;7.43;;;4.70;;
42616;SDS011;28250;52.320;0.360;2023-05-17T13:41:58;8.68;;;4.57;;
42616;SDS011;28250;52.320;0.360;2023-05-17T13:44:24;8.30;;;5.05;;
42616;SDS011;28250;52.320;0.360;2023-05-17T13:46:51;9.60;;;4.47;;
42616;SDS011;28250;52.320;0.360;2023-05-17T13:49:17;7.10;;;4.55;;
42616;SDS011;28250;52.320;0.360;2023-05-17T13:51:43;9.18;;;4.40;;
42616;SDS011;28250;52.320;0.360;2023-05-17T13:54:10;9.50;;;4.68;;
42616;SDS011;28250;52.320;0.360;2023-05-17T13:56:36;9.80;;;4.45;;
42616;SDS011;28250;52.320;0.360;2023-05-17T13:59:02;9.03;;;4.17;;
42616;SDS011;28250;52.320;0.360;2023-05-17T14:01:28;8.68;;;3.97;;
42616;SDS011;28250;52.320;0.360;2023-05-17T14:03:55;7.77;;;4.10;;
42616;SDS011;28250;52.320;0.360;2023-05-17T14:06:21;7.88;;;4.50;;
42616;SDS011;28250;52.320;0.360;2023-05-17T14:08:47;6.75;;;4.05;;
42616;SDS011;28250;52.320;0.360;2023-05-17T14:11:13;7.78;;;3.75;;
42616;SDS011;28250;52.320;0.360;2023-05-17T14:13:40;8.35;;;4.55;;
42616;SDS011;28250;52.320;0.360;2023-05-17T14:16:06;8.18;;;4.25;;
42616;SDS011;28250;52.320;0.360;2023-05-17T14:18:33;7.65;;;4.22;;
42616;SDS011;28250;52.320;0.360;2023-05-17T14:20:59;10.80;;;4.53;;
42616;SDS011;28250;52.320;0.360;2023-05-17T14:23:25;7.40;;;3.80;;
42616;SDS011;28250;52.320;0.360;2023-05-17T14:25:51;8.07;;;4.30;;
42616;SDS011;28250;52.320;0.360;2023-05-17T14:28:17;8.18;;;4.03;;
42616;SDS011;28250;52.320;0.360;2023-05-17T14:30:44;7.70;;;3.53;;
42616;SDS011;28250;52.320;0.360;2023-05-17T14:33:11;8.93;;;3.42;;
42616;SDS011;28250;52.320;0.360;2023-05-17T14:35:37;9.48;;;2.85;;
42616;SDS011;28250;52.320;0.360;2023-05-17T14:38:03;4.60;;;2.03;;
42616;SDS011;28250;52.320;0.360;2023-05-17T14:40:30;6.95;;;2.60;;
42616;SDS011;28250;52.320;0.360;2023-05-17T14:42:57;8.38;;;2.70;;
42616;SDS011;28250;52.320;0.360;2023-05-17T14:45:23;6.30;;;2.20;;
42616;SDS011;28250;52.320;0.360;2023-05-17T14:47:49;6.57;;;2.20;;
42616;SDS011;28250;52.320;0.360;2023-05-17T14:50:15;7.20;;;2.27;;
42616;SDS011;28250;52.320;0.360;2023-05-17T14:52:42;6.93;;;2.13;;
42616;SDS011;28250;52.320;0.360;2023-05-17T14:55:09;7.72;;;2.05;;
42616;SDS011;28250;52.320;0.360;2023-05-17T14:57:35;5.80;;;2.88;;
42616;SDS011;28250;52.320;0.360;2023-05-17T15:00:01;4.82;;;2.25;;
42616;SDS011;28250;52.320;0.360;2023-05-17T15:02:35;7.43;;;2.40;;
42616;SDS011;28250;52.320;0.360;2023-05-17T15:05:01;6.18;;;2.08;;
42616;SDS011;28250;52.320;0.360;2023-05-17T15:07:29;6.65;;;2.17;;
42616;SDS011;28250;52.320;0.360;2023-05-17T15:09:55;5.53;;;1.83;;
42616;SDS011;28250;52.320;0.360;2023-05-17T15:12:22;6.75;;;1.85;;
42616;SDS011;28250;52.320;0.360;2023-05-17T15:14:48;7.07;;;2.75;;
42616;SDS011;28250;52.320;0.360;2023-05-17T15:17:14;6.15;;;1.83;;
42616;SDS011;28250;52.320;0.360;2023-05-17T15:19:40;4.45;;;1.67;;
42616;SDS011;28250;52.320;0.360;2023-05-17T15:22:07;6.65;;;1.85;;
42616;SDS011;28250;52.320;0.360;2023-05-17T15:24:33;7.80;;;2.07;;
42616;SDS011;28250;52.320;0.360;2023-05-17T15:27:01;5.72;;;2.03;;
42616;SDS011;28250;52.320;0.360;2023-05-17T15:29:27;4.05;;;2.20;;